No particular awareness of the weather is required.    There are no Weather-warnings


Meteo18 Weather Cam more information Meteo18 Weather Cam


Thunder radar more information blitzortung!


Rain radar more information rain snow radar


Visit our other weather sites:

Template documentation
and downloads

And another site



Weather Underground History page Text

Daily Summary for October 20, 2017 Units:  English    Metric   Both
« Previous Day
Next Day »
Daily Weekly Monthly Yearly Custom
  High: Low: Average:
Temperature: TemperatureC °F 11.3 °F 14 °F
Dew Point: DewpointC °F 9.6 °F 11.3 °F
Humidity: Humidity % 67 % 84 %
Wind Speed: WindSpeedKMH mph 0.0 mph 7.5 mph
Wind Gust: WindSpeedGustKMH mph - -
Wind:- - SW
Pressure: PressurehPa in 1011.4 in -
Precipitation: 0.3 in    
Historical Graphs
 
 
Tabular Data for October 20, 2017
Time Temperature Dew Point Pressure Wind Wind Speed Wind Gust Humidity Rainfall Rate (Hourly)
TemperatureC °F DewpointC °F PressurehPa in Calm     Humidity % HourlyPrecipMM in
00:02 16.3 °F 13.0 °F 1011.7 in SSW 12.9 mph 20.9 mph 81 % 0.0 in
00:07 16.4 °F 13.1 °F 1011.7 in SSW 19.3 mph 20.9 mph 81 % 0.0 in
00:12 16.6 °F 13.1 °F 1011.7 in SSW 12.9 mph 24.1 mph 80 % 0.0 in
00:17 16.8 °F 13.1 °F 1011.7 in SSW 12.9 mph 24.1 mph 79 % 0.0 in
00:22 16.8 °F 13.1 °F 1011.7 in SSW 12.9 mph 30.6 mph 79 % 0.0 in
00:32 16.8 °F 13.1 °F 1011.7 in SSW 11.3 mph 30.6 mph 79 % 0.0 in
00:42 16.8 °F 12.9 °F 1011.7 in SW 27.4 mph 32.2 mph 78 % 0.0 in
00:47 16.8 °F 13.1 °F 1011.4 in SSW 19.3 mph 32.2 mph 79 % 0.0 in
00:52 16.7 °F 13.0 °F 1011.4 in SW 25.7 mph 30.6 mph 79 % 0.0 in
00:57 16.7 °F 13.0 °F 1011.4 in SSW 17.7 mph 30.6 mph 79 % 0.0 in
01:02 16.6 °F 12.9 °F 1011.4 in SSW 12.9 mph 30.6 mph 79 % 0.0 in
01:07 16.4 °F 12.7 °F 1011.4 in SSW 11.3 mph 30.6 mph 79 % 0.0 in
01:12 16.3 °F 12.8 °F 1011.4 in SSW 12.9 mph 25.7 mph 80 % 0.0 in
01:17 16.3 °F 12.8 °F 1011.4 in SSW 9.7 mph 25.7 mph 80 % 0.0 in
01:22 16.3 °F 12.7 °F 1011.4 in SW 14.5 mph 25.7 mph 79 % 0.0 in
01:27 16.2 °F 12.6 °F 1011.4 in SSW 17.7 mph 24.1 mph 79 % 0.0 in
01:32 16.1 °F 12.5 °F 1011.4 in SW 11.3 mph 22.5 mph 79 % 0.0 in
01:37 16.0 °F 12.6 °F 1011.7 in SW 16.1 mph 20.9 mph 80 % 0.0 in
01:47 16.1 °F 12.5 °F 1011.4 in South 17.7 mph 24.1 mph 79 % 0.0 in
01:52 16.1 °F 12.5 °F 1011.4 in SSE 14.5 mph 24.1 mph 79 % 0.0 in
02:02 16.1 °F 12.5 °F 1011.7 in SW 12.9 mph 22.5 mph 79 % 0.0 in
02:07 15.9 °F 12.5 °F 1011.7 in SW 8.0 mph 22.5 mph 80 % 0.0 in
02:12 15.7 °F 12.4 °F 1011.7 in WSW 11.3 mph 22.5 mph 81 % 0.0 in
02:17 15.7 °F 12.4 °F 1011.7 in SW 11.3 mph 20.9 mph 81 % 0.0 in
02:22 15.5 °F 12.3 °F 1012.1 in SW 14.5 mph 20.9 mph 81 % 0.0 in
02:32 15.3 °F 12.2 °F 1012.1 in SW 9.7 mph 22.5 mph 82 % 0.0 in
02:37 15.2 °F 12.3 °F 1012.1 in SW 11.3 mph 22.5 mph 83 % 0.0 in
02:42 14.9 °F 12.2 °F 1012.1 in SW 14.5 mph 20.9 mph 84 % 0.0 in
02:52 14.6 °F 12.1 °F 1012.1 in SSW 8.0 mph 20.9 mph 85 % 0.0 in
02:57 14.4 °F 11.9 °F 1012.1 in SSW 11.3 mph 20.9 mph 85 % 0.0 in
03:02 14.3 °F 11.8 °F 1012.1 in SW 8.0 mph 19.3 mph 85 % 0.0 in
03:07 14.1 °F 11.8 °F 1012.4 in SW 4.8 mph 16.1 mph 86 % 0.0 in
03:12 14.1 °F 12.0 °F 1012.4 in SW 8.0 mph 14.5 mph 87 % 0.0 in
03:17 14.0 °F 11.9 °F 1012.8 in SW 9.7 mph 14.5 mph 87 % 0.0 in
03:22 13.8 °F 11.7 °F 1012.4 in SSW 6.4 mph 12.9 mph 87 % 0.0 in
03:32 13.4 °F 11.5 °F 1012.8 in SW 4.8 mph 12.9 mph 88 % 0.0 in
03:37 13.4 °F 11.5 °F 1012.8 in SSW 6.4 mph 9.7 mph 88 % 0.0 in
03:42 13.3 °F 11.5 °F 1012.8 in SW 6.4 mph 12.9 mph 89 % 0.0 in
03:47 13.2 °F 11.4 °F 1012.8 in SW 4.8 mph 12.9 mph 89 % 0.0 in
03:52 13.0 °F 11.2 °F 1012.8 in SW 6.4 mph 12.9 mph 89 % 0.0 in
03:57 13.0 °F 11.4 °F 1012.8 in SW 6.4 mph 9.7 mph 90 % 0.0 in
04:02 13.0 °F 11.4 °F 1012.8 in SW 4.8 mph 9.7 mph 90 % 0.0 in
04:07 13.0 °F 11.4 °F 1012.8 in SW 9.7 mph 9.7 mph 90 % 0.0 in
04:12 13.0 °F 11.2 °F 1012.8 in SSW 4.8 mph 11.3 mph 89 % 0.0 in
04:17 13.0 °F 11.4 °F 1012.8 in SW 4.8 mph 11.3 mph 90 % 0.0 in
04:22 13.1 °F 11.5 °F 1012.8 in SSW 4.8 mph 11.3 mph 90 % 0.0 in
04:27 12.9 °F 11.3 °F 1012.8 in SW 4.8 mph 9.7 mph 90 % 0.0 in
04:32 12.7 °F 11.1 °F 1012.8 in SW 4.8 mph 8.0 mph 90 % 0.0 in
04:42 12.8 °F 11.4 °F 1013.1 in SW 6.4 mph 9.7 mph 91 % 0.0 in
04:47 12.9 °F 11.3 °F 1012.8 in SSW 6.4 mph 14.5 mph 90 % 0.0 in
04:52 13.2 °F 11.4 °F 1012.8 in SW 11.3 mph 14.5 mph 89 % 0.0 in
04:57 13.7 °F 11.7 °F 1012.8 in SSW 11.3 mph 14.5 mph 88 % 0.0 in
05:02 14.8 °F 11.9 °F 1013.1 in SW 19.3 mph 19.3 mph 83 % 0.0 in
05:07 15.5 °F 12.3 °F 1012.8 in WSW 29.0 mph 40.2 mph 81 % 0.0 in
05:17 15.2 °F 12.3 °F 1012.8 in SW 27.4 mph 41.8 mph 83 % 0.0 in
05:22 15.1 °F 12.4 °F 1012.8 in SW 12.9 mph 41.8 mph 84 % 0.0 in
05:27 15.1 °F 12.4 °F 1012.8 in SW 14.5 mph 33.8 mph 84 % 0.0 in
05:32 15.0 °F 12.3 °F 1012.8 in SW 9.7 mph 33.8 mph 84 % 0.0 in
05:37 14.9 °F 12.2 °F 1012.8 in SW 16.1 mph 33.8 mph 84 % 0.0 in
05:47 15.0 °F 12.3 °F 1012.8 in SW 11.3 mph 20.9 mph 84 % 0.0 in
05:52 15.1 °F 12.2 °F 1012.8 in SW 17.7 mph 20.9 mph 83 % 0.0 in
06:02 15.1 °F 12.4 °F 1013.1 in SW 16.1 mph 29.0 mph 84 % 0.0 in
06:12 15.0 °F 12.5 °F 1013.1 in West 19.3 mph 29.0 mph 85 % 0.0 in
06:17 14.8 °F 12.7 °F 1013.1 in SW 4.8 mph 35.4 mph 87 % 0.0 in
06:22 14.6 °F 12.5 °F 1013.4 in WSW 14.5 mph 35.4 mph 87 % 0.0 in
06:32 14.3 °F 12.5 °F 1013.4 in WSW 20.9 mph 25.7 mph 89 % 0.0 in
06:42 14.1 °F 12.7 °F 1013.4 in SSW 6.4 mph 24.1 mph 91 % 0.0 in
06:52 13.9 °F 12.6 °F 1013.8 in SW 4.8 mph 24.1 mph 92 % 0.0 in
06:57 13.7 °F 12.6 °F 1013.8 in West 9.7 mph 25.7 mph 93 % 0.0 in
07:02 13.3 °F 11.9 °F 1014.1 in West 19.3 mph 25.7 mph 91 % 0.0 in
07:07 12.8 °F 11.4 °F 1014.1 in NW 6.4 mph 22.5 mph 91 % 0.0 in
07:12 12.5 °F 11.1 °F 1014.1 in West 12.9 mph 22.5 mph 91 % 0.0 in
07:17 12.3 °F 11.0 °F 1014.1 in West 11.3 mph 25.7 mph 92 % 0.3 in
07:22 12.2 °F 10.9 °F 1014.4 in West 8.0 mph 25.7 mph 92 % 0.3 in
07:32 12.0 °F 10.9 °F 1014.4 in WNW 3.2 mph 22.5 mph 93 % 0.3 in
07:42 11.8 °F 10.7 °F 1014.4 in WSW 6.4 mph 16.1 mph 93 % 0.3 in
07:52 11.7 °F 10.4 °F 1014.4 in SW 6.4 mph 16.1 mph 92 % 0.3 in
08:02 11.6 °F 10.3 °F 1014.8 in SW 3.2 mph 16.1 mph 92 % 0.3 in
08:12 11.6 °F 10.3 °F 1015.1 in SW 6.4 mph 14.5 mph 92 % 0.3 in
08:17 11.6 °F 10.5 °F 1015.1 in West 11.3 mph 17.7 mph 93 % 0.0 in
08:22 11.6 °F 10.5 °F 1015.1 in WSW 4.8 mph 17.7 mph 93 % 0.0 in
08:32 11.6 °F 10.5 °F 1015.5 in SSW 8.0 mph 16.1 mph 93 % 0.0 in
08:42 11.6 °F 10.5 °F 1015.5 in SW 3.2 mph 16.1 mph 93 % 0.0 in
08:47 11.6 °F 10.5 °F 1015.5 in SW 1.6 mph 11.3 mph 93 % 0.0 in
08:52 11.7 °F 10.6 °F 1015.8 in West 1.6 mph 11.3 mph 93 % 0.0 in
09:02 11.7 °F 10.6 °F 1015.8 in WSW 6.4 mph 11.3 mph 93 % 0.0 in
09:12 11.8 °F 10.7 °F 1016.1 in WSW 3.2 mph 9.7 mph 93 % 0.0 in
09:17 11.8 °F 10.7 °F 1016.1 in SW 4.8 mph 9.7 mph 93 % 0.0 in
09:22 11.9 °F 11.0 °F 1016.5 in WSW 1.6 mph 9.7 mph 94 % 0.0 in
09:32 12.0 °F 11.1 °F 1016.5 in SW 4.8 mph 11.3 mph 94 % 0.0 in
09:42 12.1 °F 11.2 °F 1016.5 in WSW 3.2 mph 8.0 mph 94 % 0.0 in
09:52 12.2 °F 11.1 °F 1016.8 in WSW 3.2 mph 9.7 mph 93 % 0.0 in
10:02 12.4 °F 11.3 °F 1016.8 in WSW 3.2 mph 9.7 mph 93 % 0.0 in
10:12 12.5 °F 11.4 °F 1016.8 in SW 4.8 mph 9.7 mph 93 % 0.0 in
10:17 12.6 °F 11.3 °F 1017.2 in WSW 6.4 mph 14.5 mph 92 % 0.0 in
10:22 12.7 °F 11.4 °F 1017.2 in WSW 4.8 mph 14.5 mph 92 % 0.0 in
10:32 13.0 °F 11.6 °F 1017.2 in WSW 8.0 mph 14.5 mph 91 % 0.0 in
10:37 13.0 °F 11.4 °F 1017.2 in WSW 8.0 mph 9.7 mph 90 % 0.0 in
10:42 13.1 °F 11.5 °F 1017.2 in WSW 6.4 mph 9.7 mph 90 % 0.0 in
10:47 13.2 °F 11.6 °F 1017.5 in WSW 4.8 mph 11.3 mph 90 % 0.0 in
10:52 13.2 °F 11.4 °F 1017.5 in SSW 9.7 mph 11.3 mph 89 % 0.0 in
11:02 13.3 °F 11.5 °F 1017.5 in WSW 4.8 mph 12.9 mph 89 % 0.0 in
11:12 13.4 °F 11.5 °F 1017.5 in SW 3.2 mph 12.9 mph 88 % 0.0 in
11:17 13.7 °F 11.7 °F 1017.5 in SSW 4.8 mph 11.3 mph 88 % 0.0 in
11:22 13.7 °F 11.0 °F 1017.8 in WSW 8.0 mph 11.3 mph 84 % 0.0 in
11:32 13.7 °F 11.4 °F 1017.8 in West 1.6 mph 12.9 mph 86 % 0.0 in
11:37 13.7 °F 11.0 °F 1017.8 in WSW 11.3 mph 16.1 mph 84 % 0.0 in
11:42 13.7 °F 11.4 °F 1017.8 in West 1.6 mph 16.1 mph 86 % 0.0 in
11:52 13.7 °F 10.9 °F 1017.8 in West 4.8 mph 16.1 mph 83 % 0.0 in
12:02 13.7 °F 10.3 °F 1017.8 in West 12.9 mph 16.1 mph 80 % 0.0 in
12:12 13.9 °F 10.9 °F 1018.2 in West 4.8 mph 19.3 mph 82 % 0.0 in
12:17 13.9 °F 10.7 °F 1018.2 in West 8.0 mph 19.3 mph 81 % 0.0 in
12:22 13.9 °F 10.7 °F 1018.2 in West 4.8 mph 19.3 mph 81 % 0.0 in
12:32 14.2 °F 10.6 °F 1018.2 in West 6.4 mph 14.5 mph 79 % 0.0 in
12:42 14.2 °F 10.6 °F 1018.2 in SW 9.7 mph 19.3 mph 79 % 0.0 in
12:47 14.3 °F 10.7 °F 1018.2 in SSW 9.7 mph 19.3 mph 79 % 0.0 in
12:52 14.3 °F 11.1 °F 1018.2 in SW 12.9 mph 19.3 mph 81 % 0.0 in
13:02 14.4 °F 11.0 °F 1017.8 in SSW 8.0 mph 16.1 mph 80 % 0.0 in
13:12 14.8 °F 11.2 °F 1017.8 in WSW 8.0 mph 17.7 mph 79 % 0.0 in
13:22 14.8 °F 10.4 °F 1017.8 in SW 9.7 mph 17.7 mph 75 % 0.0 in
13:32 14.9 °F 9.7 °F 1017.8 in SW 11.3 mph 19.3 mph 71 % 0.0 in
13:42 15.3 °F 10.1 °F 1017.8 in SW 9.7 mph 22.5 mph 71 % 0.0 in
13:52 15.3 °F 9.9 °F 1017.8 in West 11.3 mph 19.3 mph 70 % 0.0 in
13:57 15.3 °F 9.6 °F 1017.8 in SW 6.4 mph 20.9 mph 69 % 0.0 in
14:02 15.3 °F 10.1 °F 1017.8 in SSW 6.4 mph 20.9 mph 71 % 0.0 in
14:12 15.7 °F 10.2 °F 1017.8 in WSW 12.9 mph 20.9 mph 70 % 0.0 in
14:17 15.6 °F 9.7 °F 1017.5 in WSW 11.3 mph 20.9 mph 68 % 0.0 in
14:22 15.6 °F 9.9 °F 1017.5 in SW 9.7 mph 27.4 mph 69 % 0.0 in
14:32 15.8 °F 9.7 °F 1017.5 in SW 16.1 mph 27.4 mph 67 % 0.0 in
14:37 15.9 °F 10.0 °F 1017.5 in West 12.9 mph 19.3 mph 68 % 0.0 in
14:47 15.9 °F 10.2 °F 1017.5 in SW 9.7 mph 24.1 mph 69 % 0.0 in
14:52 16.0 °F 9.9 °F 1017.5 in SW 11.3 mph 24.1 mph 67 % 0.0 in
14:57 15.9 °F 10.0 °F 1017.2 in WSW 11.3 mph 22.5 mph 68 % 0.0 in
15:02 15.9 °F 10.0 °F 1017.2 in West 4.8 mph 22.5 mph 68 % 0.0 in
15:07 16.1 °F 10.2 °F 1017.2 in WSW 8.0 mph 22.5 mph 68 % 0.0 in
15:17 16.3 °F 10.4 °F 1017.2 in SW 11.3 mph 19.3 mph 68 % 0.0 in
15:22 16.3 °F 10.2 °F 1017.2 in SW 9.7 mph 27.4 mph 67 % 0.0 in
15:27 16.3 °F 10.4 °F 1017.2 in WSW 11.3 mph 27.4 mph 68 % 0.0 in
15:32 16.2 °F 10.3 °F 1017.2 in SW 9.7 mph 27.4 mph 68 % 0.0 in
15:37 16.2 °F 10.5 °F 1017.2 in SSW 8.0 mph 24.1 mph 69 % 0.0 in
15:42 16.1 °F 10.6 °F 1017.2 in WSW 6.4 mph 20.9 mph 70 % 0.0 in
15:47 16.0 °F 10.7 °F 1017.2 in SW 9.7 mph 20.9 mph 71 % 0.0 in
15:52 16.0 °F 11.0 °F 1017.2 in SSW 12.9 mph 19.3 mph 72 % 0.0 in
15:57 16.0 °F 11.0 °F 1017.2 in SSW 9.7 mph 17.7 mph 72 % 0.0 in
16:02 16.0 °F 11.2 °F 1017.2 in SW 9.7 mph 17.7 mph 73 % 0.0 in
16:12 16.0 °F 11.2 °F 1017.2 in SSW 11.3 mph 19.3 mph 73 % 0.0 in
16:17 16.0 °F 11.4 °F 1017.2 in SSW 4.8 mph 19.3 mph 74 % 0.0 in
16:22 16.1 °F 11.5 °F 1017.2 in SSW 6.4 mph 19.3 mph 74 % 0.0 in
16:32 15.9 °F 11.5 °F 1017.2 in SSW 9.7 mph 20.9 mph 75 % 0.0 in
16:37 16.1 °F 11.9 °F 1017.2 in SSW 8.0 mph 20.9 mph 76 % 0.0 in
16:42 16.1 °F 11.7 °F 1017.2 in SW 8.0 mph 16.1 mph 75 % 0.0 in
16:47 15.8 °F 11.6 °F 1017.2 in South 8.0 mph 17.7 mph 76 % 0.0 in
16:57 15.7 °F 11.7 °F 1017.5 in SW 14.5 mph 17.7 mph 77 % 0.0 in
17:02 15.7 °F 11.7 °F 1017.5 in SSW 3.2 mph 17.7 mph 77 % 0.0 in
17:12 16.2 °F 12.2 °F 1017.2 in South 14.5 mph 17.7 mph 77 % 0.0 in
17:17 16.1 °F 11.7 °F 1017.2 in SSW 16.1 mph 17.7 mph 75 % 0.0 in
17:22 16.0 °F 12.0 °F 1017.2 in SW 8.0 mph 17.7 mph 77 % 0.0 in
17:27 16.1 °F 11.9 °F 1017.2 in SW 6.4 mph 17.7 mph 76 % 0.0 in
17:32 16.2 °F 11.8 °F 1017.2 in SSW 8.0 mph 17.7 mph 75 % 0.0 in
17:42 16.2 °F 12.0 °F 1017.2 in SSW 6.4 mph 17.7 mph 76 % 0.0 in
17:52 16.3 °F 12.1 °F 1017.2 in Calm   14.5 mph 76 % 0.0 in
17:57 16.3 °F 12.1 °F 1017.2 in SW 11.3 mph 14.5 mph 76 % 0.0 in
18:02 16.2 °F 12.0 °F 1017.2 in SW 6.4 mph 14.5 mph 76 % 0.0 in
18:07 16.1 °F 11.9 °F 1017.2 in SW 8.0 mph 16.1 mph 76 % 0.0 in
18:12 16.0 °F 11.8 °F 1017.2 in SW 6.4 mph 16.1 mph 76 % 0.0 in
18:17 15.9 °F 11.7 °F 1017.2 in SSW 8.0 mph 16.1 mph 76 % 0.0 in
18:22 15.8 °F 11.8 °F 1017.2 in SW 6.4 mph 14.5 mph 77 % 0.0 in
18:27 15.7 °F 11.7 °F 1017.2 in SSW 3.2 mph 14.5 mph 77 % 0.0 in
18:32 15.5 °F 11.7 °F 1017.2 in SSW 3.2 mph 12.9 mph 78 % 0.0 in
18:42 15.1 °F 11.5 °F 1017.5 in SSW 3.2 mph 11.3 mph 79 % 0.0 in
18:47 14.8 °F 11.4 °F 1017.5 in SW 1.6 mph 11.3 mph 80 % 0.0 in
18:52 14.5 °F 11.3 °F 1017.5 in SSW 3.2 mph 11.3 mph 81 % 0.0 in
18:57 14.3 °F 11.3 °F 1017.5 in South 3.2 mph 8.0 mph 82 % 0.0 in
19:02 14.1 °F 11.3 °F 1017.5 in SSW 3.2 mph 8.0 mph 83 % 0.0 in
19:07 13.9 °F 11.1 °F 1017.5 in SSW 3.2 mph 8.0 mph 83 % 0.0 in
19:12 13.7 °F 11.0 °F 1017.5 in SSW 3.2 mph 6.4 mph 84 % 0.0 in
19:17 13.4 °F 10.9 °F 1017.5 in South 1.6 mph 6.4 mph 85 % 0.0 in
19:22 13.3 °F 10.8 °F 1017.5 in SSW 1.6 mph 4.8 mph 85 % 0.0 in
19:32 13.1 °F 10.8 °F 1017.5 in SW 1.6 mph 4.8 mph 86 % 0.0 in
19:42 12.9 °F 10.8 °F 1017.5 in Calm   3.2 mph 87 % 0.0 in
19:52 12.7 °F 10.6 °F 1017.5 in Calm   1.6 mph 87 % 0.0 in
20:02 12.4 °F 10.5 °F 1017.5 in Calm   1.6 mph 88 % 0.0 in
20:12 12.3 °F 10.5 °F 1017.5 in SSW 3.2 mph 3.2 mph 89 % 0.0 in
20:22 12.3 °F 10.7 °F 1017.5 in South 1.6 mph 3.2 mph 90 % 0.0 in
20:32 12.1 °F 10.5 °F 1017.5 in SW 3.2 mph 3.2 mph 90 % 0.0 in
20:37 12.1 °F 10.7 °F 1017.5 in SSW 1.6 mph 3.2 mph 91 % 0.0 in
20:47 12.0 °F 10.6 °F 1017.5 in SSW 1.6 mph 3.2 mph 91 % 0.0 in
20:57 11.9 °F 10.5 °F 1017.5 in Calm   3.2 mph 91 % 0.0 in
21:02 11.9 °F 10.6 °F 1017.5 in Calm   3.2 mph 92 % 0.0 in
21:07 11.8 °F 10.5 °F 1017.5 in Calm   1.6 mph 92 % 0.0 in
21:12 11.8 °F 10.5 °F 1017.5 in Calm   1.6 mph 92 % 0.0 in
21:17 11.8 °F 10.5 °F 1017.5 in Calm   1.6 mph 92 % 0.0 in
21:22 11.8 °F 10.5 °F 1017.5 in SW 1.6 mph 1.6 mph 92 % 0.0 in
21:27 11.7 °F 10.4 °F 1017.5 in WSW 1.6 mph 1.6 mph 92 % 0.0 in
21:32 11.6 °F 10.5 °F 1017.5 in Calm   1.6 mph 93 % 0.0 in
21:37 11.6 °F 10.5 °F 1017.5 in SW 1.6 mph 3.2 mph 93 % 0.0 in
21:42 11.7 °F 10.6 °F 1017.5 in South 1.6 mph 6.4 mph 93 % 0.0 in
21:47 11.7 °F 10.6 °F 1017.5 in SW 6.4 mph 6.4 mph 93 % 0.0 in
21:52 11.6 °F 10.5 °F 1017.5 in Calm   6.4 mph 93 % 0.0 in
21:57 11.6 °F 10.5 °F 1017.5 in SW 1.6 mph 6.4 mph 93 % 0.0 in
22:02 11.6 °F 10.5 °F 1017.5 in Calm   6.4 mph 93 % 0.0 in
22:12 11.6 °F 10.5 °F 1017.5 in Calm   3.2 mph 93 % 0.0 in
22:22 11.6 °F 10.5 °F 1017.5 in Calm   3.2 mph 93 % 0.0 in
22:32 11.7 °F 10.8 °F 1017.5 in South 3.2 mph 3.2 mph 94 % 0.0 in
22:42 11.7 °F 10.6 °F 1017.5 in SSW 1.6 mph 3.2 mph 93 % 0.0 in
22:47 11.7 °F 10.8 °F 1017.5 in Calm   3.2 mph 94 % 0.0 in
22:52 11.7 °F 10.8 °F 1017.5 in Calm   3.2 mph 94 % 0.0 in
23:02 11.7 °F 10.8 °F 1017.5 in Calm   3.2 mph 94 % 0.0 in
23:07 11.6 °F 10.5 °F 1017.5 in Calm   1.6 mph 93 % 0.0 in
23:12 11.5 °F 10.6 °F 1017.5 in Calm   1.6 mph 94 % 0.0 in
23:17 11.4 °F 10.3 °F 1017.5 in Calm     93 % 0.0 in
23:22 11.3 °F 10.4 °F 1017.5 in Calm     94 % 0.0 in
23:32 11.4 °F 10.5 °F 1017.5 in Calm     94 % 0.0 in
23:37 11.5 °F 10.6 °F 1017.5 in Calm     94 % 0.0 in
23:42 11.6 °F 10.8 °F 1017.5 in Calm     95 % 0.0 in
23:47 11.6 °F 10.8 °F 1017.5 in Calm     95 % 0.0 in
23:52 11.7 °F 10.9 °F 1017.5 in Calm   1.6 mph 95 % 0.0 in
23:57 11.9 °F 11.1 °F 1017.5 in SW 1.6 mph 1.6 mph 95 % 0.0 in
Meteo18
Compliments of Weather Underground - 4 mb

Script developed by  Jim McMurry - jmcmurry@mwt.net Adapted for the template by  Wim van der Kuil - Leuven-Template.eu

You find our weather info also at:

European Weather Network

Weather Underground

Equipment we use:

Weather-station
Davis Vue

Weather-program
Meteobridge

Weather-server
Raspberry PI 2 B+

Provider
1 and 1

Davis Vue

Meteobridge

Raspberry PI 2 B+

1 and 1